ANTO2: Kiamichi River, Antlers, OKla

                                SHEF ID:       ANTO2     Kiamichi River near Antlers, OK
STATION TYPE:
Regulating: Stage = 22.00, Flow = 20000

PRECIP PRECIP(A) STAGE RIV-FLOW BAT-LOAD
in in ft cfs volt
Ccp-Rev Ccp-Rev Ccp-Rev Ccp-Rev Ccp-Rev
(America/Chicago)
05/04 00:00 0.00 ---- 3.12 255 12.57
05/04 01:00 0.00 ---- 3.11 253 12.56
05/04 02:00 0.00 ---- 3.11 253 12.52
05/04 03:00 0.00 ---- 3.10 250 12.50
05/04 04:00 0.00 ---- 3.10 250 12.48
05/04 05:00 0.00 ---- 3.09 248 12.46
05/04 06:00 0.00 ---- 3.08 246 ----
05/04 07:00 0.00 ---- 3.08 246 12.44
05/04 08:00 0.00 ---- 3.08 246 12.47
05/04 09:00 0.00 ---- 3.08 246 12.55
05/04 10:00 0.00 ---- 3.07 243 12.70
05/04 11:00 0.00 ---- 3.04 236 12.99
05/04 12:00 0.00 ---- 3.01 229 13.28
05/04 13:00 0.00 ---- 3.04 236 13.09
05/04 14:00 0.00 ---- 2.99 224 13.01
05/04 15:00 0.00 ---- 2.98 222 12.96
05/04 16:00 0.00 ---- 2.98 222 12.94
05/04 17:00 0.00 ---- 2.94 212 12.90
05/04 18:00 0.00 ---- 2.99 224 12.90
05/04 19:00 0.00 ---- 2.98 222 12.89
05/04 20:00 0.00 ---- 2.98 222 12.84
05/04 21:00 0.00 ---- 2.97 219 12.70
05/04 22:00 0.00 ---- 2.96 217 12.63
05/04 23:00 ---- ---- ---- ---- ----
Data processed at Tue 05May2026 04:32 GMT

NOTICE: If you are parsing this page

Please convert to using our Data API. Starting early 2026 we will be migrating to: https://water.usace.army.mil with modern pages rendered in JavaScript. When this migration completes you will no longer be able to scrape this page! CWMSDataAPI (CDA)

Timeseries IDs (TSIDs)

TSIDs used from left to right in the data table
ANTL.Precip-Inc.Total.1Hour.1Hour.Ccp-Rev
ANTL.Precip-Inc Alt.Total.1Hour.1Hour.Ccp-Rev
ANTL.Stage.Inst.1Hour.0.Ccp-Rev
ANTL.Flow.Inst.1Hour.0.Ccp-Rev
ANTL.Volt-Battery Load.Inst.1Hour.0.Ccp-Rev

                            

All information presented herein is the property of the government of the United States of America and may be revised or deleted at any time without prior notice. Dissemination of this information without the expressed written consent of the Public Affairs Office, Tulsa District U.S. Army Corps of Engineers is strictly prohibited. These data are gathered electronically and, as presented, have NOT undergone any form of quality control. These data are NOT guaranteed to be valid or correct.